Startpagina
METAR-TAF:

METAR-TAF

Vliegvelden :

Niamey, Niger

Luchthaven Diori Hamani

breedte: 13-29N, lengte: 002-10E, hoogte: 223 m

Actueel weer

Dit bericht is 22 minuten geleden gemaakt, om 00:00 UTC
Wind 5 kt uit het zuiden
Temperatuur 32°C
Vochtigheid 56%
Druk 1011 hPa
Zicht: 8000 m

METAR: DRRN 280000Z 18005KT 8000 NSC 32/22 Q1011 NOSIG

Tijdstip: 01:22 (00:22 UTC)

Verwachting

Dit bericht is 1 uur en het 22 minuten geleden gemaakt, om 23:00 UTC
Verwachting geldig van 28 om 00 UTC tot 29 om 06 UTC
Wind 8 kt uit het zuidzuidwesten
Zicht: 8000 m
Kans 40% :
Tijdelijke
van 28 om 02 UTC tot 28 om 10 UTC
Wind 20 kt uit het oosten met uitschieters tot 40 kt
Zicht: 1200 m
Verspreide wolken op 2000 ft
Verspreide wolken op 2600 ft, Cumulonimbus.
Stuifstof, onweer, regen

TAF: DRRN 272300Z 2800/2906 20008KT 8000 NSC PROB40 TEMPO 2802/2810 10020G40KT 1200 BLDU TSRA SCT020 SCT026CB

Waarnemingen en weersverwachtingen van meer dan 4000 vliegvelden (METAR en TAF).

De beschikbare stations zijn de gele en rode punten op de kaart.

Ga met uw muis naar het station om de naam te zien.

Klik dan om waarnemingen en weersverwachtingen te zien.

kaart wijzigen: klik op de groene knoppen met een zwart kruis om in te zoomen, op de groene knop met een streepje om uit te zoomen of op de groene pijlen voor aangrenzende kaarten.


METAR-TAF: